This is the latest recevied weather packets stored in our database for station/object JE9BHE-13. If no packets are shown the sender has not sent any weather packets the latest 10 day(s).
| Time | Temp. | Humidity | Pressure | Rain* | Wind** | Luminosity | Snow |
|---|---|---|---|---|---|---|---|
| 1777735266 | 16.11° C | 62% | 1014.2 hPa | 0 mm | - | - | - |
| 1777734010 | 16.11° C | 64% | 1014.2 hPa | 0 mm | - | - | - |
| 1777733827 | 16.11° C | 65% | 1014.2 hPa | 0 mm | - | - | - |
| 1777733468 | 15.56° C | 65% | 1014.4 hPa | 0 mm | - | - | - |
| 1777733107 | 15.56° C | 67% | 1014.6 hPa | 0 mm | - | - | - |
| 1777731666 | 16.11° C | 66% | 1015 hPa | 0 mm | - | - | - |
| 1777730587 | 16.67° C | 65% | 1015 hPa | 0 mm | - | - | - |
| 1777730046 | 16.11° C | 65% | 1014.7 hPa | 0 mm | - | - | - |
| 1777729507 | 16.67° C | 65% | 1014.8 hPa | 0 mm | - | - | - |
| 1777728607 | 16.11° C | 67% | 1014.7 hPa | 0 mm | - | - | - |
| 1777727166 | 16.11° C | 67% | 1014.8 hPa | 0 mm | - | - | - |
| 1777725726 | 16.11° C | 69% | 1014.8 hPa | 0 mm | - | - | - |
| 1777725546 | 16.11° C | 69% | 1014.6 hPa | 0 mm | - | - | - |
| 1777723026 | 16.11° C | 75% | 1014.6 hPa | 0 mm | - | - | - |
| 1777721406 | 16.11° C | 85% | 1014.7 hPa | 0 mm | - | - | - |
| 1777720146 | 16.11° C | 89% | 1014.5 hPa | 0 mm | - | - | - |
| 1777717446 | 17.22° C | 84% | 1014.2 hPa | 0 mm | - | - | - |
| 1777717085 | 17.22° C | 83% | 1014 hPa | 0 mm | - | - | - |
| 1777716546 | 17.22° C | 81% | 1013.9 hPa | 0 mm | - | - | - |
| 1777715106 | 17.78° C | 78% | 1013.5 hPa | 0 mm | - | - | - |
| 1777714926 | 17.78° C | 78% | 1013.5 hPa | 0 mm | - | - | - |
| 1777713846 | 18.33° C | 77% | 1013.3 hPa | 0 mm | - | - | - |
| 1777708807 | 21.67° C | 59% | 1013.2 hPa | 0 mm | - | - | - |
| 1777704306 | 22.78° C | 54% | 1012.8 hPa | 0 mm | - | - | - |
| 1777702686 | 22.22° C | 48% | 1012.7 hPa | 0 mm | - | - | - |
* Rain latest hour (hover to see other rain measurements)
** Current wind speed in m/s (hover to see current wind gust speed)